Private Wetterstation Sandau
Wetterdaten: Samstag, 07.01.2012
Datum Zeit Temp. A. Feuchte A. Luftdruck Regen Wind Richtung Richtung Taupunkt Windchill
07.01.2012 00:02 2,7 C 91 % 1015,9 hPa 0,0 l/m 8,6 km/h (2 Bft) W 270 1,4 C 0,3 C
07.01.2012 00:07 2,7 C 91 % 1016,0 hPa 0,0 l/m 9,7 km/h (2 Bft) W 270 1,4 C -0,0 C
07.01.2012 00:12 2,7 C 91 % 1015,6 hPa 0,0 l/m 13,7 km/h (3 Bft) W-SW 247 1,4 C -0,9 C
07.01.2012 00:17 2,7 C 91 % 1015,7 hPa 0,0 l/m 4,3 km/h (1 Bft) W 270 1,4 C 2,7 C
07.01.2012 00:22 2,8 C 91 % 1015,7 hPa 0,0 l/m 8,6 km/h (2 Bft) W-SW 247 1,5 C 0,4 C
07.01.2012 00:27 2,8 C 91 % 1015,7 hPa 0,0 l/m 15,5 km/h (3 Bft) W-SW 247 1,5 C -1,0 C
07.01.2012 00:32 2,9 C 91 % 1015,7 hPa 0,0 l/m 20,9 km/h (4 Bft) W-SW 247 1,6 C -1,7 C
07.01.2012 00:37 2,9 C 91 % 1015,8 hPa 0,0 l/m 11,2 km/h (2 Bft) W-NW 292 1,6 C -0,1 C
07.01.2012 00:42 3,0 C 91 % 1015,8 hPa 0,0 l/m 8,3 km/h (2 Bft) W-NW 292 1,7 C 0,7 C
07.01.2012 00:47 3,1 C 91 % 1015,6 hPa 0,0 l/m 14,8 km/h (3 Bft) W-NW 292 1,8 C -0,6 C
07.01.2012 00:52 3,2 C 91 % 1015,7 hPa 0,0 l/m 10,8 km/h (2 Bft) W 270 1,9 C 0,3 C
07.01.2012 00:57 3,3 C 91 % 1015,7 hPa 0,0 l/m 5,0 km/h (1 Bft) W-SW 247 2,0 C 2,2 C
07.01.2012 01:02 3,3 C 91 % 1015,7 hPa 0,0 l/m 9,0 km/h (2 Bft) W-SW 247 2,0 C 0,9 C
07.01.2012 01:07 3,3 C 91 % 1015,6 hPa 0,0 l/m 25,6 km/h (4 Bft) W-SW 247 2,0 C -1,7 C
07.01.2012 01:12 3,4 C 91 % 1015,6 hPa 0,0 l/m 8,6 km/h (2 Bft) W 270 2,1 C 1,1 C
07.01.2012 01:17 3,4 C 91 % 1015,3 hPa 0,0 l/m 10,1 km/h (2 Bft) W-SW 247 2,1 C 0,7 C
07.01.2012 01:22 3,4 C 91 % 1015,4 hPa 0,0 l/m 7,6 km/h (2 Bft) W-NW 292 2,1 C 1,4 C
07.01.2012 01:27 3,4 C 91 % 1015,4 hPa 0,0 l/m 7,9 km/h (2 Bft) SW 225 2,1 C 1,3 C
07.01.2012 01:32 3,4 C 91 % 1015,1 hPa 0,0 l/m 7,2 km/h (2 Bft) W 270 2,1 C 1,5 C
07.01.2012 01:37 3,4 C 91 % 1015,2 hPa 0,0 l/m 14,8 km/h (3 Bft) W-SW 247 2,1 C -0,2 C
07.01.2012 01:42 3,4 C 91 % 1015,1 hPa 0,0 l/m 16,2 km/h (3 Bft) W-SW 247 2,1 C -0,4 C
07.01.2012 01:47 3,5 C 91 % 1015,1 hPa 0,0 l/m 5,8 km/h (2 Bft) W 270 2,2 C 2,1 C
07.01.2012 01:52 3,5 C 91 % 1015,1 hPa 0,0 l/m 4,0 km/h (1 Bft) W-SW 247 2,2 C 3,5 C
07.01.2012 01:57 3,5 C 90 % 1015,0 hPa 0,0 l/m 14,4 km/h (3 Bft) W 270 2,0 C -0,0 C
07.01.2012 02:02 3,6 C 90 % 1015,1 hPa 0,0 l/m 11,9 km/h (2 Bft) W 270 2,1 C 0,6 C
07.01.2012 02:07 3,6 C 90 % 1015,1 hPa 0,0 l/m 10,1 km/h (2 Bft) W-NW 292 2,1 C 1,0 C
07.01.2012 02:12 3,6 C 90 % 1015,0 hPa 0,0 l/m 9,7 km/h (2 Bft) W 270 2,1 C 1,1 C
07.01.2012 02:17 3,7 C 90 % 1015,0 hPa 0,0 l/m 14,4 km/h (3 Bft) W-SW 247 2,2 C 0,2 C
07.01.2012 02:22 3,8 C 90 % 1015,0 hPa 0,0 l/m 7,6 km/h (2 Bft) W-SW 247 2,3 C 1,8 C
07.01.2012 02:27 3,8 C 90 % 1014,7 hPa 0,0 l/m 20,5 km/h (4 Bft) W 270 2,3 C -0,5 C
07.01.2012 02:32 3,8 C 90 % 1014,8 hPa 0,0 l/m 19,1 km/h (3 Bft) W-SW 247 2,3 C -0,3 C
07.01.2012 02:37 3,8 C 89 % 1014,8 hPa 0,0 l/m 13,3 km/h (3 Bft) W 270 2,2 C 0,6 C
07.01.2012 02:42 3,9 C 89 % 1014,8 hPa 0,0 l/m 8,3 km/h (2 Bft) W 270 2,3 C 1,8 C
07.01.2012 02:47 3,9 C 90 % 1014,8 hPa 0,0 l/m 12,2 km/h (2 Bft) W-SW 247 2,4 C 0,9 C
07.01.2012 02:52 3,9 C 89 % 1014,9 hPa 0,0 l/m 22,3 km/h (4 Bft) W-SW 247 2,3 C -0,6 C
07.01.2012 02:57 3,9 C 89 % 1014,6 hPa 0,0 l/m 12,2 km/h (2 Bft) W 270 2,3 C 0,9 C
07.01.2012 03:02 3,9 C 89 % 1014,6 hPa 0,0 l/m 8,3 km/h (2 Bft) W 270 2,3 C 1,8 C
07.01.2012 03:07 3,9 C 88 % 1014,6 hPa 0,0 l/m 20,9 km/h (4 Bft) W-SW 247 2,1 C -0,4 C
07.01.2012 03:12 3,9 C 88 % 1014,5 hPa 0,0 l/m 5,4 km/h (1 Bft) W 270 2,1 C 2,7 C
07.01.2012 03:17 3,9 C 88 % 1014,4 hPa 0,0 l/m 16,9 km/h (3 Bft) W-SW 247 2,1 C 0,1 C
07.01.2012 03:22 3,9 C 88 % 1014,3 hPa 0,0 l/m 9,0 km/h (2 Bft) W-SW 247 2,1 C 1,6 C
07.01.2012 03:27 4,0 C 88 % 1014,5 hPa 0,0 l/m 5,4 km/h (1 Bft) W 270 2,2 C 2,8 C
07.01.2012 03:32 4,1 C 87 % 1014,4 hPa 0,0 l/m 14,8 km/h (3 Bft) W-SW 247 2,1 C 0,7 C
07.01.2012 03:37 4,1 C 87 % 1014,1 hPa 0,0 l/m 28,1 km/h (4 Bft) W-SW 247 2,1 C -0,9 C
07.01.2012 03:42 4,1 C 87 % 1014,2 hPa 0,0 l/m 4,7 km/h (1 Bft) S 180 2,1 C 3,2 C
07.01.2012 03:47 4,1 C 87 % 1014,2 hPa 0,0 l/m 10,4 km/h (2 Bft) S-SW 202 2,1 C 1,5 C
07.01.2012 03:52 4,1 C 87 % 1014,2 hPa 0,0 l/m 6,5 km/h (2 Bft) W-NW 292 2,1 C 2,5 C
07.01.2012 03:57 4,1 C 87 % 1014,1 hPa 0,0 l/m 10,8 km/h (2 Bft) W 270 2,1 C 1,4 C
07.01.2012 04:02 4,1 C 87 % 1013,9 hPa 0,0 l/m 13,3 km/h (3 Bft) W-SW 247 2,1 C 0,9 C
07.01.2012 04:07 4,1 C 87 % 1013,9 hPa 0,0 l/m 18,0 km/h (3 Bft) W-SW 247 2,1 C 0,2 C
07.01.2012 04:12 4,1 C 87 % 1014,0 hPa 0,0 l/m 7,9 km/h (2 Bft) W-SW 247 2,1 C 2,1 C
07.01.2012 04:17 4,1 C 87 % 1013,8 hPa 0,0 l/m 14,8 km/h (3 Bft) W-SW 247 2,1 C 0,7 C
07.01.2012 04:22 4,1 C 87 % 1013,7 hPa 0,0 l/m 8,3 km/h (2 Bft) W 270 2,1 C 2,0 C
07.01.2012 04:27 4,1 C 86 % 1013,5 hPa 0,0 l/m 7,9 km/h (2 Bft) W-SW 247 2,0 C 2,1 C
07.01.2012 04:32 4,1 C 86 % 1013,5 hPa 0,0 l/m 8,6 km/h (2 Bft) W 270 2,0 C 1,9 C
07.01.2012 04:37 4,1 C 86 % 1013,5 hPa 0,0 l/m 9,4 km/h (2 Bft) W-SW 247 2,0 C 1,7 C
07.01.2012 04:42 4,1 C 86 % 1013,4 hPa 0,0 l/m 14,0 km/h (3 Bft) SW 225 2,0 C 0,8 C
07.01.2012 04:47 4,1 C 86 % 1013,3 hPa 0,0 l/m 10,8 km/h (2 Bft) W-SW 247 2,0 C 1,4 C
07.01.2012 04:52 4,1 C 86 % 1013,1 hPa 0,0 l/m 14,4 km/h (3 Bft) S-SW 202 2,0 C 0,7 C
07.01.2012 04:57 4,1 C 86 % 1012,9 hPa 0,0 l/m 16,9 km/h (3 Bft) SW 225 2,0 C 0,3 C
07.01.2012 05:02 4,1 C 86 % 1012,7 hPa 0,0 l/m 10,4 km/h (2 Bft) W 270 2,0 C 1,5 C
07.01.2012 05:07 4,1 C 86 % 1012,7 hPa 0,0 l/m 11,5 km/h (2 Bft) W-SW 247 2,0 C 1,3 C
07.01.2012 05:12 4,2 C 85 % 1012,6 hPa 0,0 l/m 7,6 km/h (2 Bft) W-SW 247 1,9 C 2,3 C
07.01.2012 05:17 4,2 C 85 % 1012,6 hPa 0,0 l/m 10,4 km/h (2 Bft) W-SW 247 1,9 C 1,6 C
07.01.2012 05:22 4,1 C 85 % 1012,3 hPa 0,0 l/m 25,6 km/h (4 Bft) W-SW 247 1,8 C -0,7 C
07.01.2012 05:27 4,2 C 85 % 1012,4 hPa 0,0 l/m 16,2 km/h (3 Bft) W-SW 247 1,9 C 0,6 C
07.01.2012 05:32 4,2 C 85 % 1012,1 hPa 0,0 l/m 18,4 km/h (3 Bft) W 270 1,9 C 0,3 C
07.01.2012 05:37 4,2 C 84 % 1012,1 hPa 0,0 l/m 4,7 km/h (1 Bft) SW 225 1,7 C 3,3 C
07.01.2012 05:42 4,2 C 84 % 1011,8 hPa 0,0 l/m 9,4 km/h (2 Bft) SW 225 1,7 C 1,8 C
07.01.2012 05:47 4,2 C 84 % 1011,8 hPa 0,0 l/m 24,5 km/h (4 Bft) NW 315 1,7 C -0,5 C
07.01.2012 05:52 4,2 C 84 % 1011,7 hPa 0,0 l/m 20,5 km/h (4 Bft) SW 225 1,7 C -0,0 C
07.01.2012 05:57 4,2 C 84 % 1011,7 hPa 0,0 l/m 14,8 km/h (3 Bft) SW 225 1,7 C 0,8 C
07.01.2012 06:02 4,2 C 84 % 1011,6 hPa 0,0 l/m 13,7 km/h (3 Bft) SW 225 1,7 C 1,0 C
07.01.2012 06:07 4,1 C 85 % 1011,5 hPa 0,0 l/m 14,4 km/h (3 Bft) W-SW 247 1,8 C 0,7 C
07.01.2012 06:12 4,1 C 85 % 1011,4 hPa 0,0 l/m 18,7 km/h (3 Bft) W-SW 247 1,8 C 0,1 C
07.01.2012 06:17 3,9 C 85 % 1011,5 hPa 0,0 l/m 10,8 km/h (2 Bft) W 270 1,6 C 1,2 C
07.01.2012 06:22 3,9 C 86 % 1011,1 hPa 0,0 l/m 10,1 km/h (2 Bft) W 270 1,8 C 1,3 C
07.01.2012 06:27 3,8 C 86 % 1011,2 hPa 0,0 l/m 9,7 km/h (2 Bft) S 180 1,7 C 1,3 C
07.01.2012 06:32 3,8 C 86 % 1011,0 hPa 0,0 l/m 17,6 km/h (3 Bft) SW 225 1,7 C -0,1 C
07.01.2012 06:37 3,7 C 87 % 1010,9 hPa 0,0 l/m 14,4 km/h (3 Bft) S-SW 202 1,7 C 0,2 C
07.01.2012 06:42 3,6 C 87 % 1010,7 hPa 0,0 l/m 5,0 km/h (1 Bft) S 180 1,6 C 2,5 C
07.01.2012 06:47 3,6 C 87 % 1010,6 hPa 0,0 l/m 11,5 km/h (2 Bft) S-SW 202 1,6 C 0,7 C
07.01.2012 06:52 3,6 C 87 % 1010,6 hPa 0,0 l/m 18,7 km/h (3 Bft) SW 225 1,6 C -0,5 C
07.01.2012 06:57 3,6 C 87 % 1010,6 hPa 0,0 l/m 14,8 km/h (3 Bft) S 180 1,6 C 0,1 C
07.01.2012 07:02 3,6 C 87 % 1010,3 hPa 0,0 l/m 14,4 km/h (3 Bft) SW 225 1,6 C 0,1 C
07.01.2012 07:07 3,6 C 88 % 1010,4 hPa 0,5 l/m 8,3 km/h (2 Bft) S-SW 202 1,8 C 1,4 C
07.01.2012 07:12 3,6 C 88 % 1010,3 hPa 0,0 l/m 12,2 km/h (2 Bft) S 180 1,8 C 0,5 C
07.01.2012 07:17 3,5 C 88 % 1010,3 hPa 0,0 l/m 13,0 km/h (3 Bft) SW 225 1,7 C 0,2 C
07.01.2012 07:22 3,5 C 88 % 1010,1 hPa 0,0 l/m 14,0 km/h (3 Bft) SW 225 1,7 C 0,1 C
07.01.2012 07:27 3,5 C 88 % 1009,9 hPa 0,0 l/m 10,4 km/h (2 Bft) S-SO 157 1,7 C 0,8 C
07.01.2012 07:32 3,5 C 89 % 1009,9 hPa 0,0 l/m 10,1 km/h (2 Bft) S-SW 202 1,9 C 0,8 C
07.01.2012 07:37 3,5 C 89 % 1009,6 hPa 0,0 l/m 20,5 km/h (4 Bft) SW 225 1,9 C -0,9 C
07.01.2012 07:42 3,5 C 89 % 1009,5 hPa 0,0 l/m 10,8 km/h (2 Bft) S-SW 202 1,9 C 0,7 C
07.01.2012 07:47 3,5 C 89 % 1009,5 hPa 0,0 l/m 18,0 km/h (3 Bft) S 180 1,9 C -0,6 C
07.01.2012 07:52 3,5 C 89 % 1009,6 hPa 0,0 l/m 18,7 km/h (3 Bft) SW 225 1,9 C -0,7 C
07.01.2012 07:57 3,5 C 89 % 1009,6 hPa 0,0 l/m 15,8 km/h (3 Bft) W 270 1,9 C -0,2 C
07.01.2012 08:02 3,6 C 89 % 1009,3 hPa 0,0 l/m 18,7 km/h (3 Bft) S 180 2,0 C -0,5 C
07.01.2012 08:07 3,6 C 89 % 1009,3 hPa 0,0 l/m 12,6 km/h (3 Bft) S 180 2,0 C 0,4 C
07.01.2012 08:12 3,6 C 89 % 1009,2 hPa 0,0 l/m 18,4 km/h (3 Bft) S 180 2,0 C -0,5 C
07.01.2012 08:17 3,6 C 89 % 1009,2 hPa 0,0 l/m 8,6 km/h (2 Bft) SO 135 2,0 C 1,3 C
07.01.2012 08:22 3,6 C 89 % 1009,2 hPa 0,0 l/m 15,8 km/h (3 Bft) S-SW 202 2,0 C -0,1 C
07.01.2012 08:27 3,8 C 89 % 1009,0 hPa 0,0 l/m 25,2 km/h (4 Bft) S-SW 202 2,2 C -1,0 C
07.01.2012 08:32 3,8 C 89 % 1009,0 hPa 0,0 l/m 18,0 km/h (3 Bft) W-SW 247 2,2 C -0,2 C
07.01.2012 08:37 3,8 C 89 % 1009,1 hPa 0,0 l/m 17,6 km/h (3 Bft) SW 225 2,2 C -0,1 C
07.01.2012 08:42 3,8 C 89 % 1008,9 hPa 0,0 l/m 13,3 km/h (3 Bft) S-SO 157 2,2 C 0,6 C
07.01.2012 08:47 3,9 C 89 % 1009,0 hPa 0,0 l/m 10,1 km/h (2 Bft) W-NW 292 2,3 C 1,3 C
07.01.2012 08:52 3,9 C 90 % 1008,9 hPa 0,0 l/m 12,2 km/h (2 Bft) SW 225 2,4 C 0,9 C
07.01.2012 08:57 3,9 C 90 % 1008,7 hPa 0,0 l/m 13,7 km/h (3 Bft) S-SW 202 2,4 C 0,6 C
07.01.2012 09:02 3,9 C 90 % 1008,7 hPa 0,0 l/m 16,9 km/h (3 Bft) W-SW 247 2,4 C 0,1 C
07.01.2012 09:07 3,9 C 89 % 1008,7 hPa 0,0 l/m 14,4 km/h (3 Bft) S-SW 202 2,3 C 0,5 C
07.01.2012 09:12 3,9 C 89 % 1008,7 hPa 0,0 l/m 18,0 km/h (3 Bft) W-SW 247 2,3 C -0,1 C
07.01.2012 09:17 3,9 C 89 % 1008,4 hPa 0,0 l/m 24,1 km/h (4 Bft) S-SW 202 2,3 C -0,8 C
07.01.2012 09:22 3,9 C 89 % 1008,4 hPa 0,0 l/m 11,9 km/h (2 Bft) S 180 2,3 C 0,9 C
07.01.2012 09:27 3,9 C 90 % 1008,2 hPa 0,0 l/m 18,7 km/h (3 Bft) S-SW 202 2,4 C -0,2 C
07.01.2012 09:32 4,1 C 90 % 1008,0 hPa 0,0 l/m 21,2 km/h (4 Bft) S-SW 202 2,6 C -0,2 C
07.01.2012 09:37 4,1 C 90 % 1007,9 hPa 0,0 l/m 10,8 km/h (2 Bft) SW 225 2,6 C 1,4 C
07.01.2012 09:42 4,1 C 90 % 1007,8 hPa 0,0 l/m 19,1 km/h (3 Bft) S 180 2,6 C 0,0 C
07.01.2012 09:47 4,1 C 90 % 1007,8 hPa 0,0 l/m 19,4 km/h (3 Bft) SW 225 2,6 C 0,0 C
07.01.2012 09:52 4,1 C 90 % 1007,9 hPa 0,5 l/m 11,2 km/h (2 Bft) SW 225 2,6 C 1,3 C
07.01.2012 09:57 4,1 C 90 % 1007,6 hPa 0,0 l/m 18,4 km/h (3 Bft) S-SW 202 2,6 C 0,1 C
07.01.2012 10:02 4,2 C 90 % 1007,5 hPa 0,0 l/m 11,2 km/h (2 Bft) W 270 2,7 C 1,4 C
07.01.2012 10:07 4,3 C 90 % 1007,4 hPa 0,0 l/m 9,4 km/h (2 Bft) W-SW 247 2,8 C 2,0 C
07.01.2012 10:12 4,3 C 90 % 1007,7 hPa 0,0 l/m 18,0 km/h (3 Bft) W-SW 247 2,8 C 0,4 C
07.01.2012 10:17 4,4 C 90 % 1007,5 hPa 0,5 l/m 14,8 km/h (3 Bft) W-SW 247 2,9 C 1,0 C
07.01.2012 10:22 4,4 C 90 % 1007,4 hPa 0,0 l/m 16,6 km/h (3 Bft) S-SW 202 2,9 C 0,8 C
07.01.2012 10:27 4,4 C 90 % 1007,3 hPa 0,0 l/m 18,4 km/h (3 Bft) S-SW 202 2,9 C 0,5 C
07.01.2012 10:32 4,5 C 90 % 1007,3 hPa 0,0 l/m 16,6 km/h (3 Bft) W 270 3,0 C 0,9 C
07.01.2012 10:37 4,6 C 90 % 1007,3 hPa 0,0 l/m 10,1 km/h (2 Bft) SW 225 3,1 C 2,2 C
07.01.2012 10:42 4,6 C 90 % 1007,1 hPa 0,0 l/m 13,3 km/h (3 Bft) W-SW 247 3,1 C 1,5 C
07.01.2012 10:47 4,7 C 90 % 1007,0 hPa 0,0 l/m 18,0 km/h (3 Bft) S-SW 202 3,2 C 0,9 C
07.01.2012 10:52 4,7 C 90 % 1006,9 hPa 0,0 l/m 12,2 km/h (2 Bft) W 270 3,2 C 1,9 C
07.01.2012 10:57 4,8 C 90 % 1006,7 hPa 0,0 l/m 21,2 km/h (4 Bft) W 270 3,3 C 0,7 C
07.01.2012 11:02 4,8 C 90 % 1006,6 hPa 0,0 l/m 16,9 km/h (3 Bft) W-SW 247 3,3 C 1,2 C
07.01.2012 11:07 4,8 C 90 % 1006,4 hPa 0,0 l/m 18,0 km/h (3 Bft) S-SW 202 3,3 C 1,1 C
07.01.2012 11:12 4,9 C 90 % 1006,3 hPa 0,0 l/m 15,5 km/h (3 Bft) W-SW 247 3,4 C 1,5 C
07.01.2012 11:17 4,9 C 90 % 1006,2 hPa 0,0 l/m 26,3 km/h (4 Bft) SW 225 3,4 C 0,3 C
07.01.2012 11:22 4,9 C 90 % 1006,2 hPa 0,0 l/m 19,1 km/h (3 Bft) W 270 3,4 C 1,1 C
07.01.2012 11:27 4,9 C 90 % 1006,2 hPa 0,0 l/m 24,1 km/h (4 Bft) W-SW 247 3,4 C 0,5 C
07.01.2012 11:32 5,0 C 90 % 1006,1 hPa 0,0 l/m 16,2 km/h (3 Bft) W-NW 292 3,5 C 1,6 C
07.01.2012 11:37 5,1 C 90 % 1006,0 hPa 0,0 l/m 31,7 km/h (5 Bft) SW 225 3,6 C 0,0 C
07.01.2012 11:42 5,1 C 91 % 1005,9 hPa 0,0 l/m 15,8 km/h (3 Bft) SW 225 3,8 C 1,8 C
07.01.2012 11:47 5,2 C 91 % 1005,7 hPa 0,0 l/m 25,6 km/h (4 Bft) W 270 3,9 C 0,7 C
07.01.2012 11:52 5,3 C 91 % 1005,8 hPa 0,0 l/m 23,0 km/h (4 Bft) W-SW 247 4,0 C 1,1 C
07.01.2012 11:57 5,3 C 91 % 1005,7 hPa 0,0 l/m 14,4 km/h (3 Bft) W-SW 247 4,0 C 2,2 C
07.01.2012 12:02 5,3 C 91 % 1005,7 hPa 0,0 l/m 11,2 km/h (2 Bft) W-SW 247 4,0 C 2,8 C
07.01.2012 12:07 5,4 C 91 % 1005,7 hPa 0,0 l/m 17,3 km/h (3 Bft) W 270 4,1 C 1,9 C
07.01.2012 12:12 5,4 C 91 % 1005,6 hPa 0,0 l/m 20,5 km/h (4 Bft) S-SO 157 4,1 C 1,5 C
07.01.2012 12:17 5,5 C 91 % 1005,5 hPa 0,0 l/m 30,6 km/h (5 Bft) W-SW 247 4,2 C 0,7 C
07.01.2012 12:22 5,6 C 91 % 1005,5 hPa 0,0 l/m 21,2 km/h (4 Bft) W-SW 247 4,2 C 1,7 C
07.01.2012 12:27 5,6 C 91 % 1005,4 hPa 0,0 l/m 33,1 km/h (5 Bft) W-SW 247 4,2 C 0,6 C
07.01.2012 12:32 5,6 C 91 % 1005,1 hPa 0,0 l/m 26,6 km/h (4 Bft) W-SW 247 4,2 C 1,1 C
07.01.2012 12:37 5,8 C 91 % 1005,2 hPa 0,0 l/m 12,2 km/h (2 Bft) W-SW 247 4,4 C 3,2 C
07.01.2012 12:42 5,8 C 91 % 1004,9 hPa 0,0 l/m 14,0 km/h (3 Bft) W-SW 247 4,4 C 2,9 C
07.01.2012 12:47 5,8 C 91 % 1005,1 hPa 0,0 l/m 9,7 km/h (2 Bft) W 270 4,4 C 3,7 C
07.01.2012 12:52 5,8 C 91 % 1004,9 hPa 0,0 l/m 23,4 km/h (4 Bft) W-SW 247 4,4 C 1,7 C
07.01.2012 12:57 5,8 C 91 % 1005,1 hPa 0,0 l/m 23,4 km/h (4 Bft) W-SW 247 4,4 C 1,7 C
07.01.2012 13:02 5,9 C 91 % 1004,9 hPa 0,0 l/m 16,6 km/h (3 Bft) W-SW 247 4,5 C 2,6 C
07.01.2012 13:07 5,9 C 91 % 1004,9 hPa 0,0 l/m 18,0 km/h (3 Bft) W 270 4,5 C 2,4 C
07.01.2012 13:12 6,1 C 91 % 1004,9 hPa 0,0 l/m 21,6 km/h (4 Bft) W-SW 247 4,7 C 2,3 C
07.01.2012 13:17 6,1 C 91 % 1004,9 hPa 0,0 l/m 24,8 km/h (4 Bft) W-SW 247 4,7 C 1,9 C
07.01.2012 13:22 6,1 C 91 % 1004,8 hPa 0,0 l/m 17,6 km/h (3 Bft) W-SW 247 4,7 C 2,7 C
07.01.2012 13:27 6,2 C 91 % 1004,6 hPa 0,0 l/m 20,9 km/h (4 Bft) W-SW 247 4,8 C 2,5 C
07.01.2012 13:32 6,2 C 91 % 1004,9 hPa 0,0 l/m 9,7 km/h (2 Bft) SW 225 4,8 C 4,2 C
07.01.2012 13:37 6,3 C 91 % 1004,9 hPa 0,0 l/m 9,0 km/h (2 Bft) W-SW 247 4,9 C 4,4 C
07.01.2012 13:42 6,3 C 91 % 1004,9 hPa 0,0 l/m 16,9 km/h (3 Bft) S-SW 202 4,9 C 3,1 C
07.01.2012 13:47 6,4 C 92 % 1004,8 hPa 0,0 l/m 23,4 km/h (4 Bft) W 270 5,2 C 2,5 C
07.01.2012 13:52 6,4 C 92 % 1004,8 hPa 0,0 l/m 19,4 km/h (3 Bft) W-SW 247 5,2 C 2,9 C
07.01.2012 13:57 6,4 C 92 % 1004,8 hPa 0,0 l/m 23,4 km/h (4 Bft) W-SW 247 5,2 C 2,5 C
07.01.2012 14:02 6,4 C 91 % 1004,8 hPa 0,0 l/m 8,6 km/h (2 Bft) W-SW 247 5,0 C 4,6 C
07.01.2012 14:07 6,5 C 91 % 1004,6 hPa 0,0 l/m 22,3 km/h (4 Bft) W 270 5,1 C 2,7 C
07.01.2012 14:12 6,5 C 91 % 1004,8 hPa 0,0 l/m 10,4 km/h (2 Bft) W-NW 292 5,1 C 4,4 C
07.01.2012 14:17 6,6 C 91 % 1004,8 hPa 0,0 l/m 11,2 km/h (2 Bft) W 270 5,2 C 4,3 C
07.01.2012 14:22 6,7 C 91 % 1004,6 hPa 0,0 l/m 7,2 km/h (2 Bft) W 270 5,3 C 5,3 C
07.01.2012 14:27 6,7 C 91 % 1004,9 hPa 0,0 l/m 13,7 km/h (3 Bft) SW 225 5,3 C 4,0 C
07.01.2012 14:32 6,8 C 91 % 1004,9 hPa 0,0 l/m 20,9 km/h (4 Bft) W 270 5,4 C 3,2 C
07.01.2012 14:37 6,9 C 91 % 1005,0 hPa 0,0 l/m 20,9 km/h (4 Bft) W-NW 292 5,5 C 3,4 C
07.01.2012 14:42 6,9 C 90 % 1005,1 hPa 0,0 l/m 15,8 km/h (3 Bft) W 270 5,4 C 4,0 C
07.01.2012 14:47 6,9 C 90 % 1005,1 hPa 0,0 l/m 19,8 km/h (3 Bft) W-NW 292 5,4 C 3,5 C
07.01.2012 14:52 6,9 C 90 % 1005,0 hPa 0,0 l/m 14,8 km/h (3 Bft) N-NW 337 5,4 C 4,1 C
07.01.2012 14:57 6,9 C 89 % 1005,1 hPa 0,0 l/m 11,9 km/h (2 Bft) W-NW 292 5,2 C 4,6 C
07.01.2012 15:02 6,9 C 89 % 1005,2 hPa 0,0 l/m 16,9 km/h (3 Bft) W-NW 292 5,2 C 3,8 C
07.01.2012 15:07 6,9 C 88 % 1005,3 hPa 0,0 l/m 17,6 km/h (3 Bft) W-NW 292 5,1 C 3,7 C
07.01.2012 15:12 6,9 C 88 % 1005,2 hPa 0,0 l/m 25,9 km/h (4 Bft) W-NW 292 5,1 C 2,9 C
07.01.2012 15:17 6,9 C 88 % 1005,4 hPa 0,0 l/m 15,8 km/h (3 Bft) W-NW 292 5,1 C 4,0 C
07.01.2012 15:22 6,9 C 88 % 1005,5 hPa 0,0 l/m 9,0 km/h (2 Bft) W-NW 292 5,1 C 5,1 C
07.01.2012 15:27 6,8 C 88 % 1005,8 hPa 0,0 l/m 13,7 km/h (3 Bft) W-SW 247 5,0 C 4,2 C
07.01.2012 15:32 6,8 C 88 % 1005,7 hPa 0,0 l/m 16,2 km/h (3 Bft) NW 315 5,0 C 3,8 C
07.01.2012 15:37 6,8 C 88 % 1005,9 hPa 0,0 l/m 13,7 km/h (3 Bft) W 270 5,0 C 4,2 C
07.01.2012 15:42 6,8 C 88 % 1005,8 hPa 0,0 l/m 11,2 km/h (2 Bft) W-NW 292 5,0 C 4,6 C
07.01.2012 15:47 6,8 C 88 % 1005,9 hPa 0,0 l/m 13,3 km/h (3 Bft) W 270 5,0 C 4,2 C
07.01.2012 15:52 6,8 C 88 % 1005,9 hPa 0,0 l/m 10,1 km/h (2 Bft) W-NW 292 5,0 C 4,8 C
07.01.2012 15:57 6,8 C 88 % 1005,9 hPa 0,0 l/m 16,9 km/h (3 Bft) W 270 5,0 C 3,7 C
07.01.2012 16:02 6,8 C 88 % 1005,9 hPa 0,0 l/m 11,9 km/h (2 Bft) W-SW 247 5,0 C 4,5 C
07.01.2012 16:07 6,8 C 87 % 1006,0 hPa 0,0 l/m 16,2 km/h (3 Bft) W 270 4,8 C 3,8 C
07.01.2012 16:12 6,8 C 87 % 1006,0 hPa 0,0 l/m 6,8 km/h (2 Bft) W-NW 292 4,8 C 5,6 C
07.01.2012 16:17 6,8 C 87 % 1006,1 hPa 0,0 l/m 8,6 km/h (2 Bft) N-NW 337 4,8 C 5,1 C
07.01.2012 16:22 6,8 C 87 % 1006,2 hPa 0,5 l/m 9,0 km/h (2 Bft) W-NW 292 4,8 C 5,0 C
07.01.2012 16:27 6,7 C 87 % 1006,3 hPa 0,0 l/m 11,9 km/h (2 Bft) W-NW 292 4,7 C 4,3 C
07.01.2012 16:32 6,6 C 88 % 1006,3 hPa 0,5 l/m 5,8 km/h (2 Bft) N-NW 337 4,8 C 5,6 C
07.01.2012 16:37 6,5 C 88 % 1006,5 hPa 0,5 l/m 3,2 km/h (1 Bft) NW 315 4,7 C 6,5 C
07.01.2012 16:42 6,4 C 88 % 1006,3 hPa 0,0 l/m 11,9 km/h (2 Bft) W-NW 292 4,6 C 4,0 C
07.01.2012 16:47 6,3 C 88 % 1006,3 hPa 0,0 l/m 8,3 km/h (2 Bft) W 270 4,5 C 4,6 C
07.01.2012 16:52 6,3 C 89 % 1006,4 hPa 0,0 l/m 19,1 km/h (3 Bft) W 270 4,6 C 2,8 C
07.01.2012 16:57 6,2 C 89 % 1006,4 hPa 0,0 l/m 14,4 km/h (3 Bft) W 270 4,5 C 3,3 C
07.01.2012 17:02 6,2 C 89 % 1006,4 hPa 0,0 l/m 18,0 km/h (3 Bft) W-NW 292 4,5 C 2,8 C
07.01.2012 17:07 6,1 C 89 % 1006,6 hPa 0,0 l/m 19,1 km/h (3 Bft) W-NW 292 4,4 C 2,6 C
07.01.2012 17:12 6,1 C 89 % 1006,6 hPa 0,0 l/m 18,0 km/h (3 Bft) W-SW 247 4,4 C 2,7 C
07.01.2012 17:17 6,1 C 89 % 1006,6 hPa 0,0 l/m 16,2 km/h (3 Bft) W-SW 247 4,4 C 2,9 C
07.01.2012 17:22 6,1 C 88 % 1006,7 hPa 0,0 l/m 24,5 km/h (4 Bft) NW 315 4,3 C 2,0 C
07.01.2012 17:27 6,1 C 88 % 1006,9 hPa 0,0 l/m 21,6 km/h (4 Bft) W-NW 292 4,3 C 2,3 C
07.01.2012 17:32 6,1 C 88 % 1006,8 hPa 0,0 l/m 16,6 km/h (3 Bft) W 270 4,3 C 2,9 C
07.01.2012 17:37 6,1 C 88 % 1007,0 hPa 0,0 l/m 14,8 km/h (3 Bft) W-NW 292 4,3 C 3,1 C
07.01.2012 17:42 6,1 C 88 % 1006,9 hPa 0,0 l/m 15,8 km/h (3 Bft) W-SW 247 4,3 C 3,0 C
07.01.2012 17:47 6,1 C 88 % 1007,1 hPa 0,0 l/m 16,6 km/h (3 Bft) W 270 4,3 C 2,9 C
07.01.2012 17:52 6,1 C 88 % 1007,0 hPa 0,0 l/m 16,6 km/h (3 Bft) W 270 4,3 C 2,9 C
07.01.2012 17:57 6,1 C 88 % 1006,9 hPa 0,0 l/m 12,2 km/h (2 Bft) W-NW 292 4,3 C 3,6 C
07.01.2012 18:02 6,0 C 88 % 1007,0 hPa 0,0 l/m 14,8 km/h (3 Bft) W 270 4,2 C 3,0 C
07.01.2012 18:07 5,9 C 88 % 1007,0 hPa 0,0 l/m 15,1 km/h (3 Bft) W 270 4,1 C 2,8 C
07.01.2012 18:12 5,9 C 88 % 1007,3 hPa 0,0 l/m 7,6 km/h (2 Bft) W-NW 292 4,1 C 4,3 C
07.01.2012 18:17 5,9 C 88 % 1007,3 hPa 0,0 l/m 15,5 km/h (3 Bft) W-NW 292 4,1 C 2,8 C
07.01.2012 18:22 5,9 C 88 % 1007,3 hPa 0,0 l/m 7,6 km/h (2 Bft) W-SW 247 4,1 C 4,3 C
07.01.2012 18:27 5,9 C 88 % 1007,6 hPa 0,0 l/m 19,1 km/h (3 Bft) W 270 4,1 C 2,3 C
07.01.2012 18:32 5,9 C 88 % 1007,6 hPa 0,0 l/m 13,3 km/h (3 Bft) W 270 4,1 C 3,1 C
07.01.2012 18:37 5,9 C 88 % 1007,4 hPa 0,0 l/m 19,8 km/h (3 Bft) W 270 4,1 C 2,2 C
07.01.2012 18:42 5,9 C 88 % 1007,6 hPa 0,0 l/m 15,8 km/h (3 Bft) NW 315 4,1 C 2,7 C
07.01.2012 18:47 5,9 C 88 % 1007,6 hPa 0,0 l/m 17,6 km/h (3 Bft) W 270 4,1 C 2,5 C
07.01.2012 18:52 5,9 C 88 % 1007,7 hPa 0,0 l/m 14,4 km/h (3 Bft) W-NW 292 4,1 C 2,9 C
07.01.2012 18:57 5,9 C 88 % 1007,7 hPa 0,0 l/m 22,3 km/h (4 Bft) W 270 4,1 C 1,9 C
07.01.2012 19:02 5,8 C 88 % 1007,9 hPa 0,0 l/m 12,2 km/h (2 Bft) W-SW 247 4,0 C 3,2 C
07.01.2012 19:07 5,8 C 88 % 1008,0 hPa 0,0 l/m 18,4 km/h (3 Bft) W-NW 292 4,0 C 2,3 C
07.01.2012 19:12 5,8 C 88 % 1008,1 hPa 0,0 l/m 11,5 km/h (2 Bft) W-SW 247 4,0 C 3,3 C
07.01.2012 19:17 5,8 C 88 % 1008,1 hPa 0,0 l/m 13,7 km/h (3 Bft) W-NW 292 4,0 C 2,9 C
07.01.2012 19:22 5,8 C 88 % 1008,0 hPa 0,0 l/m 8,6 km/h (2 Bft) W 270 4,0 C 3,9 C
07.01.2012 19:27 5,8 C 88 % 1008,2 hPa 0,0 l/m 7,6 km/h (2 Bft) W-NW 292 4,0 C 4,2 C
07.01.2012 19:32 5,8 C 88 % 1008,2 hPa 0,0 l/m 11,9 km/h (2 Bft) W 270 4,0 C 3,2 C
07.01.2012 19:37 5,8 C 88 % 1008,4 hPa 0,0 l/m 9,7 km/h (2 Bft) W-SW 247 4,0 C 3,7 C
07.01.2012 19:42 5,8 C 88 % 1008,4 hPa 0,0 l/m 20,5 km/h (4 Bft) W-NW 292 4,0 C 2,0 C
07.01.2012 19:47 5,8 C 88 % 1008,4 hPa 0,0 l/m 15,8 km/h (3 Bft) W 270 4,0 C 2,6 C
07.01.2012 19:52 5,7 C 88 % 1008,4 hPa 0,0 l/m 16,9 km/h (3 Bft) W 270 3,9 C 2,3 C
07.01.2012 19:57 5,6 C 88 % 1008,5 hPa 0,0 l/m 8,6 km/h (2 Bft) W 270 3,8 C 3,7 C
07.01.2012 20:02 5,6 C 88 % 1008,4 hPa 0,0 l/m 18,7 km/h (3 Bft) W-NW 292 3,8 C 2,0 C
07.01.2012 20:07 5,7 C 88 % 1008,6 hPa 0,0 l/m 14,0 km/h (3 Bft) W-NW 292 3,9 C 2,8 C
07.01.2012 20:12 5,7 C 88 % 1008,8 hPa 0,0 l/m 24,1 km/h (4 Bft) W 270 3,9 C 1,5 C
07.01.2012 20:17 5,8 C 88 % 1008,9 hPa 0,0 l/m 20,2 km/h (4 Bft) W-NW 292 4,0 C 2,1 C
07.01.2012 20:22 5,8 C 87 % 1009,1 hPa 0,0 l/m 26,3 km/h (4 Bft) W 270 3,8 C 1,4 C
07.01.2012 20:27 5,8 C 87 % 1009,1 hPa 0,0 l/m 23,8 km/h (4 Bft) W 270 3,8 C 1,7 C
07.01.2012 20:32 5,9 C 87 % 1009,1 hPa 0,0 l/m 19,1 km/h (3 Bft) W-NW 292 3,9 C 2,3 C
07.01.2012 20:37 5,9 C 87 % 1009,2 hPa 0,0 l/m 18,4 km/h (3 Bft) W 270 3,9 C 2,4 C
07.01.2012 20:42 5,8 C 87 % 1009,4 hPa 0,0 l/m 10,1 km/h (2 Bft) W 270 3,8 C 3,6 C
07.01.2012 20:47 5,8 C 87 % 1009,3 hPa 0,0 l/m 9,0 km/h (2 Bft) W-SW 247 3,8 C 3,8 C
07.01.2012 20:52 5,8 C 87 % 1009,5 hPa 0,0 l/m 12,2 km/h (2 Bft) W-NW 292 3,8 C 3,2 C
07.01.2012 20:57 5,8 C 88 % 1009,5 hPa 0,0 l/m 13,7 km/h (3 Bft) SW 225 4,0 C 2,9 C
07.01.2012 21:02 5,8 C 88 % 1009,5 hPa 0,0 l/m 12,2 km/h (2 Bft) W-SW 247 4,0 C 3,2 C
07.01.2012 21:07 5,7 C 88 % 1009,5 hPa 0,0 l/m 16,9 km/h (3 Bft) W-NW 292 3,9 C 2,3 C
07.01.2012 21:12 5,6 C 88 % 1009,5 hPa 0,0 l/m 7,6 km/h (2 Bft) W-SW 247 3,8 C 3,9 C
07.01.2012 21:17 5,6 C 88 % 1009,6 hPa 0,0 l/m 14,4 km/h (3 Bft) W-SW 247 3,8 C 2,6 C
07.01.2012 21:22 5,6 C 88 % 1009,8 hPa 0,0 l/m 23,4 km/h (4 Bft) W-NW 292 3,8 C 1,4 C
07.01.2012 21:27 5,6 C 88 % 1009,5 hPa 0,0 l/m 9,0 km/h (2 Bft) W 270 3,8 C 3,6 C
07.01.2012 21:32 5,6 C 88 % 1009,7 hPa 0,0 l/m 7,2 km/h (2 Bft) W-NW 292 3,8 C 4,1 C
07.01.2012 21:37 5,6 C 88 % 1009,8 hPa 0,0 l/m 7,6 km/h (2 Bft) W-SW 247 3,8 C 3,9 C
07.01.2012 21:42 5,6 C 88 % 1009,8 hPa 0,0 l/m 15,5 km/h (3 Bft) W-NW 292 3,8 C 2,4 C
07.01.2012 21:47 5,5 C 88 % 1009,8 hPa 0,0 l/m 13,3 km/h (3 Bft) W-NW 292 3,7 C 2,6 C
07.01.2012 21:52 5,5 C 88 % 1009,8 hPa 0,0 l/m 17,3 km/h (3 Bft) W-NW 292 3,7 C 2,0 C
07.01.2012 21:57 5,5 C 88 % 1009,8 hPa 0,0 l/m 17,3 km/h (3 Bft) W-NW 292 3,7 C 2,0 C
07.01.2012 22:02 5,5 C 88 % 1010,0 hPa 0,0 l/m 10,1 km/h (2 Bft) W 270 3,7 C 3,2 C
07.01.2012 22:07 5,5 C 88 % 1009,8 hPa 0,0 l/m 5,8 km/h (2 Bft) W-NW 292 3,7 C 4,4 C
07.01.2012 22:12 5,5 C 88 % 1009,9 hPa 0,0 l/m 17,3 km/h (3 Bft) SW 225 3,7 C 2,0 C
07.01.2012 22:17 5,5 C 88 % 1010,0 hPa 0,0 l/m 13,3 km/h (3 Bft) W-SW 247 3,7 C 2,6 C
07.01.2012 22:22 5,5 C 88 % 1010,0 hPa 0,0 l/m 14,4 km/h (3 Bft) W 270 3,7 C 2,5 C
07.01.2012 22:27 5,5 C 88 % 1010,0 hPa 0,0 l/m 14,8 km/h (3 Bft) W-NW 292 3,7 C 2,4 C
07.01.2012 22:32 5,4 C 88 % 1010,0 hPa 0,0 l/m 8,3 km/h (2 Bft) W-NW 292 3,6 C 3,5 C
07.01.2012 22:37 5,4 C 88 % 1010,2 hPa 0,0 l/m 14,4 km/h (3 Bft) W-SW 247 3,6 C 2,3 C
07.01.2012 22:42 5,4 C 87 % 1010,2 hPa 0,0 l/m 7,6 km/h (2 Bft) W-SW 247 3,4 C 3,7 C
07.01.2012 22:47 5,3 C 87 % 1010,3 hPa 0,0 l/m 23,0 km/h (4 Bft) W 270 3,3 C 1,1 C
07.01.2012 22:52 5,3 C 87 % 1010,2 hPa 0,0 l/m 11,2 km/h (2 Bft) NW 315 3,3 C 2,8 C
07.01.2012 22:57 5,2 C 87 % 1010,3 hPa 0,0 l/m 16,6 km/h (3 Bft) W 270 3,2 C 1,8 C
07.01.2012 23:02 5,1 C 87 % 1010,3 hPa 0,0 l/m 18,7 km/h (3 Bft) W 270 3,1 C 1,4 C
07.01.2012 23:07 5,1 C 87 % 1010,4 hPa 0,0 l/m 14,8 km/h (3 Bft) W 270 3,1 C 1,9 C
07.01.2012 23:12 5,1 C 87 % 1010,5 hPa 0,0 l/m 10,1 km/h (2 Bft) W 270 3,1 C 2,8 C
07.01.2012 23:17 5,1 C 87 % 1010,3 hPa 0,0 l/m 18,0 km/h (3 Bft) W-NW 292 3,1 C 1,4 C
07.01.2012 23:22 5,1 C 87 % 1010,4 hPa 0,0 l/m 14,8 km/h (3 Bft) W 270 3,1 C 1,9 C
07.01.2012 23:27 5,1 C 87 % 1010,4 hPa 0,0 l/m 11,9 km/h (2 Bft) W-NW 292 3,1 C 2,4 C
07.01.2012 23:32 5,1 C 87 % 1010,3 hPa 0,0 l/m 13,7 km/h (3 Bft) W-SW 247 3,1 C 2,1 C
07.01.2012 23:37 5,1 C 88 % 1010,5 hPa 0,0 l/m 4,7 km/h (1 Bft) W-SW 247 3,3 C 4,3 C
07.01.2012 23:42 5,1 C 88 % 1010,4 hPa 0,0 l/m 11,5 km/h (2 Bft) NW 315 3,3 C 2,5 C
07.01.2012 23:47 5,1 C 88 % 1010,4 hPa 0,0 l/m 15,1 km/h (3 Bft) W 270 3,3 C 1,9 C
07.01.2012 23:52 5,1 C 88 % 1010,5 hPa 0,0 l/m 14,8 km/h (3 Bft) W 270 3,3 C 1,9 C
07.01.2012 23:57 5,0 C 88 % 1010,3 hPa 0,0 l/m 16,9 km/h (3 Bft) W-NW 292 3,2 C 1,5 C
_ Min-Zeit 00:02 05:37 13:27 - 16:37 - - 00:02 01:07
Minimum _ 2,7 C 84 % 1004,6 hPa - 3,2 km/h (1 Bft) - - 1,4 C -1,7 C
_ Max-Zeit 14:37 13:47 00:07 07:07 12:27 - - 14:37 16:37
Maximum _ 6,9 C 92 % 1016,0 hPa 0,5 l/m 33,1 km/h
W-SW (5 Bft)
- - 5,5 C 6,5 C
Durchschnitt _ 4,9 C 89 % 1009,4 hPa #3,1 l/m 14,6 km/h (3 Bft) W-SW - 3,2 C 1,9 C
(c) by David Heller